Pagina principale
METAR-TAF:

METAR-TAF

Aeroporti :

Brighton, Inghilterra

latitudine: 50-50N, longitudine: 000-17W, altezza: 2 m

Osservazione

Il bollettino è stato emesso 8 ore e 26 minuti fa, alle 18:50 UTC
Vento 5 kt da nord
Temperature 9°C
Umidità 76%
Pressione 1023 hPa
Visibilità 10 km o più
nessuna nube inferiore a 1500 m e nessun cumulonembo

METAR: EGKA 231850Z 01005KT CAVOK 09/05 Q1023

Ora: 03:16 (03:16 UTC)

Previsione

Il bollettino è stato emesso 8 ore e 38 minuti fa, alle 18:38 UTC
Previsione valida dal 23 alle 18 UTC al 23 alle 19 UTC
Vento 4 kt da direzioni variabili
Visibilità 10 km o più
Nubi sparse ad un'altezza di 4000 ft

TAF: EGKA 231838Z 2318/2319 VRB04KT 9999 SCT040

Osservazioni e previsioni meteorologiche di più di 4000 aeroporti (messaggi METAR e TAF).

Le stazioni disponibili sono rappresentate dai dischi gialli e rossi sulla carta.

Puntare il mouse per vedere il nome della stazione.

Clicca sopra per visualizzare le osservazioni e previsioni meteorologiche.

Per cambiare la mappa : fare clic sui pulsanti verdi con una croce nera per ingrandire, il pulsante verde con un trattino per diminuire, o sulla freccia verde per le mappe adiacenti.


METAR-TAF: